Time;durP1;ratioP1;P1;durP2;ratioP2;P2;SDS_P1;SDS_P2;PMS_P1;PMS_P2;Temp;Humidity;BMP_temperature;BMP_pressure;BME280_temperature;BME280_humidity;BME280_pressure;Samples;Min_cycle;Max_cycle;Signal;HPM_P1;HPM_P2
2022/05/14 00:00:49;;;;;;;;;;;;;;;18.84;41.97;101447.66;5008059;28;97167;-72
2022/05/14 00:03:17;;;;;;;;;;;;;;;18.92;41.83;101444.53;5005593;28;96885;-73
2022/05/14 00:05:44;;;;;;;;;;;;;;;18.81;41.86;101445.16;5008027;28;99516;-73
2022/05/14 00:08:10;;;;;;;;;;;;;;;18.79;41.86;101441.72;5003821;28;98757;-71
2022/05/14 00:13:03;;;;;;;;;;;;;;;18.93;41.83;101448.94;5008116;28;96730;-72
2022/05/14 00:13:24;;;;;;;;;;;;;;;18.76;42.15;101438.34;5004251;28;96773;-72
2022/05/14 00:15:50;;;;;;;;;;;;;;;18.88;41.96;101443.00;5008387;28;101305;-73
2022/05/14 00:18:19;;;;;;;;;;;;;;;18.77;42.23;101438.28;5013812;28;98833;-72
2022/05/14 00:20:45;;;;;;;;;;;;;;;18.82;42.00;101440.69;5008187;28;97358;-73
2022/05/14 00:23:11;;;;;;;;;;;;;;;18.83;42.28;101437.06;5009651;28;96833;-72
2022/05/14 00:25:38;;;;;;;;;;;;;;;19.01;41.77;101433.28;5002615;28;98919;-73
2022/05/14 00:28:04;;;;;;;;;;;;;;;19.04;41.76;101436.63;5007160;28;98688;-74
2022/05/14 00:30:31;;;;;;;;;;;;;;;18.74;42.22;101427.72;5004809;28;97368;-72
2022/05/14 00:32:58;;;;;;;;;;;;;;;18.94;41.92;101434.59;5002548;28;96938;-73
2022/05/14 00:35:27;;;;;;;;;;;;;;;18.51;42.51;101433.53;5000699;28;98949;-73
2022/05/14 00:37:53;;;;;;;;;;;;;;;18.57;42.70;101426.06;4997318;28;98676;-73
2022/05/14 00:40:21;;;;;;;;;;;;;;;18.60;43.03;101425.84;5007119;28;97048;-73
2022/05/14 00:42:48;;;;;;;;;;;;;;;18.81;42.63;101430.91;4999281;28;98500;-72
2022/05/14 00:45:16;;;;;;;;;;;;;;;18.84;42.36;101433.44;5007642;28;99359;-72
2022/05/14 00:47:45;;;;;;;;;;;;;;;18.88;42.41;101437.63;5005339;28;99054;-71
2022/05/14 00:50:17;;;;;;;;;;;;;;;19.00;42.18;101439.59;5000263;28;97230;-72
2022/05/14 00:52:45;;;;;;;;;;;;;;;18.88;42.34;101441.19;5001127;28;99013;-71
2022/05/14 00:55:13;;;;;;;;;;;;;;;18.82;42.46;101430.84;5003668;28;98192;-71
2022/05/14 00:57:41;;;;;;;;;;;;;;;18.96;42.16;101438.06;4995308;28;102253;-73
2022/05/14 01:00:10;;;;;;;;;;;;;;;18.95;42.26;101441.69;5001554;28;97251;-75
2022/05/14 01:02:37;;;;;;;;;;;;;;;18.99;42.28;101440.53;5001109;28;97951;-71
2022/05/14 01:05:03;;;;;;;;;;;;;;;18.81;42.51;101441.63;5003562;28;98969;-73
2022/05/14 01:07:32;;;;;;;;;;;;;;;18.82;42.28;101440.69;4997201;28;105217;-73
2022/05/14 01:10:01;;;;;;;;;;;;;;;18.93;42.01;101440.91;5000797;28;97783;-71
2022/05/14 01:12:28;;;;;;;;;;;;;;;18.61;42.73;101445.47;5000675;28;96849;-72
2022/05/14 01:14:55;;;;;;;;;;;;;;;18.76;42.44;101447.25;4995694;28;99480;-72
2022/05/14 01:17:21;;;;;;;;;;;;;;;18.85;42.50;101452.06;4997793;28;101143;-74
2022/05/14 01:19:47;;;;;;;;;;;;;;;18.43;43.51;101455.38;4997725;28;96963;-72
2022/05/14 01:22:22;;;;;;;;;;;;;;;18.80;42.52;101446.13;5001506;28;98901;-73
2022/05/14 01:27:38;;;;;;;;;;;;;;;18.44;43.43;101448.22;4993686;28;98847;-74
2022/05/14 01:30:05;;;;;;;;;;;;;;;18.71;42.99;101449.31;5006313;28;97219;-71
2022/05/14 01:32:34;;;;;;;;;;;;;;;18.71;42.78;101439.47;4997570;28;97491;-73
2022/05/14 01:35:00;;;;;;;;;;;;;;;18.96;42.28;101449.63;5002620;28;101276;-72
2022/05/14 01:37:28;;;;;;;;;;;;;;;18.71;42.59;101431.44;5002249;28;98906;-74
2022/05/14 01:39:54;;;;;;;;;;;;;;;18.94;42.25;101434.59;4998466;28;96730;-72
2022/05/14 01:42:21;;;;;;;;;;;;;;;18.66;43.10;101425.50;5004433;28;97780;-74
2022/05/14 01:44:49;;;;;;;;;;;;;;;18.59;43.33;101432.16;4999537;28;98954;-72
2022/05/14 01:47:15;;;;;;;;;;;;;;;18.32;44.04;101444.41;4997213;28;99212;-73
2022/05/14 01:49:41;;;;;;;;;;;;;;;18.67;43.43;101443.28;5005304;28;97210;-72
2022/05/14 01:52:08;;;;;;;;;;;;;;;18.66;43.36;101441.56;5006474;28;97017;-73
2022/05/14 01:54:34;;;;;;;;;;;;;;;18.49;43.37;101441.66;5007372;28;97865;-71
2022/05/14 01:57:00;;;;;;;;;;;;;;;18.83;42.65;101442.41;5004202;28;98811;-74
2022/05/14 01:59:27;;;;;;;;;;;;;;;18.48;43.31;101444.41;5005840;28;97597;-71
2022/05/14 02:01:54;;;;;;;;;;;;;;;18.46;43.21;101443.63;5010482;28;97929;-73
2022/05/14 02:04:21;;;;;;;;;;;;;;;18.68;42.94;101452.19;5003419;28;99363;-74
2022/05/14 02:06:47;;;;;;;;;;;;;;;18.55;42.78;101446.69;5001935;28;99224;-73
2022/05/14 02:09:14;;;;;;;;;;;;;;;18.70;42.37;101442.25;4995709;28;97901;-73
2022/05/14 02:11:42;;;;;;;;;;;;;;;18.29;43.15;101441.91;5004878;28;97234;-74
2022/05/14 02:14:08;;;;;;;;;;;;;;;18.80;42.57;101450.59;5000597;28;98685;-72
2022/05/14 02:16:35;;;;;;;;;;;;;;;18.66;42.31;101436.22;4998640;28;98234;-73
2022/05/14 02:19:04;;;;;;;;;;;;;;;18.61;42.52;101432.94;5003280;28;97761;-72
2022/05/14 02:21:32;;;;;;;;;;;;;;;18.49;42.75;101441.66;5007502;28;97275;-72
2022/05/14 02:23:59;;;;;;;;;;;;;;;18.60;42.63;101447.28;5004611;28;99336;-72
2022/05/14 02:26:25;;;;;;;;;;;;;;;18.74;42.31;101440.25;5003048;28;101265;-73
2022/05/14 02:28:52;;;;;;;;;;;;;;;18.22;43.31;101449.44;5006442;28;97193;-72
2022/05/14 02:31:18;;;;;;;;;;;;;;;18.32;42.94;101447.09;5004128;28;97209;-72
2022/05/14 02:33:45;;;;;;;;;;;;;;;17.49;44.74;101460.56;4997792;28;101503;-72
2022/05/14 02:36:12;;;;;;;;;;;;;;;17.69;44.88;101456.84;5003555;28;97238;-74
2022/05/14 02:38:40;;;;;;;;;;;;;;;18.28;43.25;101450.88;4995205;28;96838;-73
2022/05/14 02:41:07;;;;;;;;;;;;;;;18.42;42.87;101453.66;5004778;28;96904;-73
2022/05/14 02:43:33;;;;;;;;;;;;;;;18.01;43.59;101452.44;4994408;28;101682;-73
2022/05/14 02:46:00;;;;;;;;;;;;;;;18.12;43.50;101450.00;5000385;28;98962;-73
2022/05/14 02:48:26;;;;;;;;;;;;;;;18.14;43.32;101450.78;5002321;28;96974;-73
2022/05/14 02:50:53;;;;;;;;;;;;;;;18.35;42.95;101454.94;5004617;28;97557;-71
2022/05/14 02:53:21;;;;;;;;;;;;;;;18.25;42.93;101451.03;5000917;28;100089;-72
2022/05/14 02:55:47;;;;;;;;;;;;;;;18.54;42.86;101452.94;5003991;28;99249;-73
2022/05/14 02:59:06;;;;;;;;;;;;;;;18.70;42.44;101448.47;5001159;28;97276;-76
2022/05/14 03:01:00;;;;;;;;;;;;;;;18.60;42.24;101443.72;5003428;28;98791;-73
2022/05/14 03:03:26;;;;;;;;;;;;;;;18.42;42.69;101442.94;4995638;28;100690;-71
2022/05/14 03:05:52;;;;;;;;;;;;;;;18.61;42.79;101451.69;4997000;28;98830;-72
2022/05/14 03:08:20;;;;;;;;;;;;;;;18.61;42.30;101451.69;4998961;28;96871;-73
2022/05/14 03:10:46;;;;;;;;;;;;;;;18.02;43.74;101452.34;5003042;28;97744;-74
2022/05/14 03:13:13;;;;;;;;;;;;;;;17.74;44.41;101458.31;5004454;28;101225;-73
2022/05/14 03:15:39;;;;;;;;;;;;;;;18.22;43.76;101457.44;4996263;28;97679;-72
2022/05/14 03:18:06;;;;;;;;;;;;;;;18.24;43.59;101457.38;5000272;28;96844;-74
2022/05/14 03:20:32;;;;;;;;;;;;;;;18.19;43.84;101451.41;5001846;28;98344;-73
2022/05/14 03:22:58;;;;;;;;;;;;;;;17.72;44.46;101454.88;5005750;28;99036;-73
2022/05/14 03:25:26;;;;;;;;;;;;;;;17.93;44.29;101455.50;4999780;28;100232;-73
2022/05/14 03:27:52;;;;;;;;;;;;;;;17.75;44.74;101449.38;5004601;28;96962;-72
2022/05/14 03:30:19;;;;;;;;;;;;;;;18.05;44.10;101452.16;5005552;28;96962;-74
2022/05/14 03:32:46;;;;;;;;;;;;;;;17.99;44.27;101457.84;5007565;28;98978;-74
2022/05/14 03:35:12;;;;;;;;;;;;;;;17.80;44.53;101457.13;5001133;28;99082;-75
2022/05/14 03:37:39;;;;;;;;;;;;;;;17.61;45.21;101459.06;5008923;28;96862;-74
2022/05/14 03:40:06;;;;;;;;;;;;;;;17.96;44.41;101468.72;5001486;28;96809;-67
2022/05/14 03:42:33;;;;;;;;;;;;;;;18.02;43.96;101454.16;4999606;28;100649;-67
2022/05/14 03:45:00;;;;;;;;;;;;;;;17.82;44.70;101457.91;5005751;28;99281;-67
2022/05/14 03:47:26;;;;;;;;;;;;;;;17.14;46.11;101459.72;5007001;28;97591;-66
2022/05/14 03:49:52;;;;;;;;;;;;;;;17.84;44.78;101459.56;4999121;28;97496;-66
2022/05/14 03:52:19;;;;;;;;;;;;;;;18.10;44.19;101457.28;4999302;28;99081;-66
2022/05/14 03:54:46;;;;;;;;;;;;;;;18.40;43.43;101450.19;4996567;28;98813;-66
2022/05/14 03:57:13;;;;;;;;;;;;;;;18.38;43.41;101457.44;5008285;28;97126;-66
2022/05/14 03:59:41;;;;;;;;;;;;;;;18.65;42.45;101450.53;5000308;28;96791;-67
2022/05/14 04:02:08;;;;;;;;;;;;;;;18.20;43.63;101451.31;5002579;28;97832;-67
2022/05/14 04:04:35;;;;;;;;;;;;;;;18.35;43.64;101446.06;5001271;28;97981;-67
2022/05/14 04:07:01;;;;;;;;;;;;;;;18.57;43.04;101451.94;5001653;28;96845;-66
2022/05/14 04:09:28;;;;;;;;;;;;;;;18.28;43.70;101450.88;4999955;28;97409;-67
2022/05/14 04:11:54;;;;;;;;;;;;;;;18.44;43.56;101453.56;5003373;28;99922;-67
2022/05/14 04:14:21;;;;;;;;;;;;;;;18.81;42.54;101449.66;5006756;28;98043;-66
2022/05/14 04:16:49;;;;;;;;;;;;;;;18.83;42.66;101447.75;5001322;28;96843;-66
2022/05/14 04:19:15;;;;;;;;;;;;;;;18.96;42.41;101451.44;4999490;28;96855;-66
2022/05/14 04:21:41;;;;;;;;;;;;;;;18.65;42.84;101458.56;5003266;28;98847;-66
2022/05/14 04:24:08;;;;;;;;;;;;;;;18.09;43.79;101459.09;5008420;28;97549;-66
2022/05/14 04:26:34;;;;;;;;;;;;;;;18.32;43.82;101468.47;5000884;27;96799;-69
2022/05/14 04:29:00;;;;;;;;;;;;;;;18.60;42.90;101457.97;5003078;28;97535;-66
2022/05/14 04:31:27;;;;;;;;;;;;;;;18.06;44.09;101461.91;5000567;28;101269;-67
2022/05/14 04:33:54;;;;;;;;;;;;;;;17.98;44.76;101455.28;5001410;28;98748;-66
2022/05/14 04:36:21;;;;;;;;;;;;;;;18.36;43.56;101458.50;5005088;28;96909;-73
2022/05/14 04:38:47;;;;;;;;;;;;;;;18.49;43.39;101456.84;5004510;28;99165;-72
2022/05/14 04:41:14;;;;;;;;;;;;;;;18.60;42.91;101452.63;5000234;28;98252;-73
2022/05/14 04:43:40;;;;;;;;;;;;;;;18.97;42.17;101455.84;5000893;28;99611;-72
2022/05/14 04:46:07;;;;;;;;;;;;;;;19.10;41.97;101456.81;5002607;28;97332;-75
2022/05/14 04:48:34;;;;;;;;;;;;;;;19.14;41.57;101460.19;5010646;28;98237;-73
2022/05/14 04:51:02;;;;;;;;;;;;;;;19.18;41.98;101461.72;5002880;28;100194;-73
2022/05/14 04:53:28;;;;;;;;;;;;;;;19.39;41.48;101463.09;5003697;28;98772;-75
2022/05/14 04:55:54;;;;;;;;;;;;;;;19.61;40.86;101463.56;4997946;28;97084;-75
2022/05/14 04:58:21;;;;;;;;;;;;;;;19.50;41.01;101461.53;5006826;28;96948;-74
2022/05/14 05:00:47;;;;;;;;;;;;;;;19.04;41.74;101475.94;4999818;28;100510;-75
2022/05/14 05:03:19;;;;;;;;;;;;;;;19.28;41.11;101474.50;5005984;28;99215;-74
2022/05/14 05:05:45;;;;;;;;;;;;;;;19.04;41.28;101478.59;5003942;28;96759;-74
2022/05/14 05:08:13;;;;;;;;;;;;;;;19.31;40.67;101476.97;5001884;28;97125;-73
2022/05/14 05:10:40;;;;;;;;;;;;;;;19.17;41.10;101476.94;5003440;28;101329;-73
2022/05/14 05:13:09;;;;;;;;;;;;;;;19.39;40.52;101485.41;5000990;28;101238;-72
2022/05/14 05:15:36;;;;;;;;;;;;;;;19.22;40.57;101477.53;5002975;28;96886;-72
2022/05/14 05:18:02;;;;;;;;;;;;;;;19.18;41.18;101486.69;5003577;28;96867;-70
2022/05/14 05:20:29;;;;;;;;;;;;;;;19.68;40.10;101489.03;4998901;28;99283;-73
2022/05/14 05:22:55;;;;;;;;;;;;;;;19.68;39.81;101483.69;5007361;28;97998;-73
2022/05/14 05:25:23;;;;;;;;;;;;;;;19.49;40.18;101491.13;5009157;28;98666;-73
2022/05/14 05:27:49;;;;;;;;;;;;;;;19.42;39.93;101487.06;5004395;28;98958;-73
2022/05/14 05:30:16;;;;;;;;;;;;;;;19.45;40.48;101495.75;5007289;28;100593;-76
2022/05/14 05:32:42;;;;;;;;;;;;;;;18.98;41.13;101495.91;5002293;28;99164;-73
2022/05/14 05:35:09;;;;;;;;;;;;;;;19.73;39.98;101488.75;5001210;28;97811;-77
2022/05/14 05:37:35;;;;;;;;;;;;;;;20.02;39.01;101503.88;5004778;28;96879;-75
2022/05/14 05:40:02;;;;;;;;;;;;;;;20.02;39.26;101501.19;5010288;28;99736;-75
2022/05/14 05:42:30;;;;;;;;;;;;;;;19.67;39.54;101505.22;4999779;28;99149;-74
2022/05/14 05:44:57;;;;;;;;;;;;;;;19.62;40.04;101505.50;5008350;28;97143;-73
2022/05/14 05:47:23;;;;;;;;;;;;;;;19.76;39.73;101505.50;5001720;28;96977;-74
2022/05/14 05:49:51;;;;;;;;;;;;;;;19.86;39.46;101506.66;5001961;28;98780;-74
2022/05/14 05:52:17;;;;;;;;;;;;;;;20.19;38.87;101503.69;5002226;28;100931;-74
2022/05/14 05:57:34;;;;;;;;;;;;;;;20.64;37.81;101505.25;5003407;28;96887;-74
2022/05/14 06:00:00;;;;;;;;;;;;;;;19.86;39.34;101500.44;5009059;28;98064;-72
2022/05/14 06:02:26;;;;;;;;;;;;;;;20.68;37.94;101508.59;5002738;28;98837;-73
2022/05/14 06:04:53;;;;;;;;;;;;;;;20.82;37.28;101503.16;5003344;28;97237;-74
2022/05/14 06:07:19;;;;;;;;;;;;;;;20.60;37.65;101503.75;5000802;28;98932;-73
2022/05/14 06:09:47;;;;;;;;;;;;;;;20.23;38.52;101505.19;5006037;28;99255;-73
2022/05/14 06:12:14;;;;;;;;;;;;;;;19.59;40.13;101508.34;5005199;28;98716;-72
2022/05/14 06:14:41;;;;;;;;;;;;;;;19.79;39.95;101513.38;5001703;28;98669;-73
2022/05/14 06:17:08;;;;;;;;;;;;;;;20.04;39.37;101510.00;5003183;28;96860;-74
2022/05/14 06:19:34;;;;;;;;;;;;;;;19.58;39.91;101517.34;5007366;28;98155;-73
2022/05/14 06:22:00;;;;;;;;;;;;;;;19.50;40.49;101531.22;5005081;28;99022;-73
2022/05/14 06:24:26;;;;;;;;;;;;;;;19.80;39.91;101531.19;5004140;28;96839;-74
2022/05/14 06:26:53;;;;;;;;;;;;;;;18.84;41.94;101527.13;4999257;28;98734;-74
2022/05/14 06:29:19;;;;;;;;;;;;;;;19.84;40.31;101524.66;4999217;28;97869;-66
2022/05/14 06:31:47;;;;;;;;;;;;;;;19.90;40.30;101523.41;4994809;28;101989;-74
2022/05/14 06:34:13;;;;;;;;;;;;;;;20.01;39.86;101525.44;5002298;28;96828;-73
2022/05/14 06:36:39;;;;;;;;;;;;;;;20.00;39.75;101523.72;5005680;28;97901;-74
2022/05/14 06:39:06;;;;;;;;;;;;;;;19.91;40.15;101527.81;4997524;28;100598;-74
2022/05/14 06:41:32;;;;;;;;;;;;;;;20.00;40.14;101540.69;4999226;28;100804;-73
2022/05/14 06:43:58;;;;;;;;;;;;;;;20.49;39.46;101533.09;4998402;28;96795;-72
2022/05/14 06:46:25;;;;;;;;;;;;;;;20.22;39.88;101534.81;5001471;28;97920;-72
2022/05/14 06:48:52;;;;;;;;;;;;;;;20.65;39.19;101533.84;5004529;28;101549;-73
2022/05/14 06:51:20;;;;;;;;;;;;;;;20.91;38.71;101542.88;5001827;28;98916;-73
2022/05/14 06:53:47;;;;;;;;;;;;;;;20.66;38.98;101540.94;5000564;28;96939;-72
2022/05/14 06:56:15;;;;;;;;;;;;;;;20.00;40.72;101537.13;4999919;28;97334;-72
2022/05/14 06:58:42;;;;;;;;;;;;;;;19.80;40.78;101530.31;4992670;28;97765;-73
2022/05/14 07:01:09;;;;;;;;;;;;;;;20.62;39.70;101538.53;5000948;28;99348;-71
2022/05/14 07:06:40;;;;;;;;;;;;;;;19.84;41.31;101542.56;5006053;28;98804;-72
2022/05/14 07:09:08;;;;;;;;;;;;;;;19.77;41.41;101541.22;5001468;28;97833;-72
2022/05/14 07:11:35;;;;;;;;;;;;;;;19.77;41.27;101543.91;5001799;28;99911;-73
2022/05/14 07:14:02;;;;;;;;;;;;;;;19.30;42.17;101539.53;5007005;28;97902;-72
2022/05/14 07:16:28;;;;;;;;;;;;;;;19.93;41.37;101542.00;5005286;28;97689;-72
2022/05/14 07:18:55;;;;;;;;;;;;;;;19.78;41.61;101546.50;5001487;28;101408;-73
2022/05/14 07:21:21;;;;;;;;;;;;;;;20.38;40.16;101537.44;4998796;28;102290;-73
2022/05/14 07:23:49;;;;;;;;;;;;;;;20.39;40.79;101533.78;5006572;28;96932;-75
2022/05/14 07:26:15;;;;;;;;;;;;;;;21.03;39.28;101539.34;4999614;28;97157;-71
2022/05/14 07:28:42;;;;;;;;;;;;;;;21.42;38.93;101535.84;5003832;28;100888;-73
2022/05/14 07:31:09;;;;;;;;;;;;;;;21.66;38.53;101538.66;5001414;28;98699;-75
2022/05/14 07:33:36;;;;;;;;;;;;;;;22.32;37.11;101526.81;5002293;28;96983;-73
2022/05/14 07:36:04;;;;;;;;;;;;;;;22.56;36.58;101533.13;5003828;28;96810;-72
2022/05/14 07:38:32;;;;;;;;;;;;;;;22.41;36.91;101530.69;4998836;28;99014;-65
2022/05/14 07:41:01;;;;;;;;;;;;;;;22.18;37.28;101524.28;4999688;28;97836;-64
2022/05/14 07:43:30;;;;;;;;;;;;;;;21.88;38.18;101528.13;5002505;28;96975;-65
2022/05/14 07:45:59;;;;;;;;;;;;;;;20.89;39.47;101531.34;5002640;28;98508;-66
2022/05/14 07:48:28;;;;;;;;;;;;;;;21.40;38.77;101526.16;4998340;28;97698;-67
2022/05/14 07:50:55;;;;;;;;;;;;;;;21.50;38.66;101529.94;5000220;28;100567;-66
2022/05/14 07:53:21;;;;;;;;;;;;;;;21.13;39.50;101528.88;5000776;28;98502;-67
2022/05/14 07:55:47;;;;;;;;;;;;;;;20.62;40.32;101525.09;5002069;28;97398;-66
2022/05/14 07:58:15;;;;;;;;;;;;;;;21.53;38.52;101534.25;5001981;28;99536;-67
2022/05/14 08:00:41;;;;;;;;;;;;;;;20.81;40.17;101535.50;5003133;28;98740;-68
2022/05/14 08:03:08;;;;;;;;;;;;;;;21.91;37.96;101528.91;4998663;28;97269;-66
2022/05/14 08:05:35;;;;;;;;;;;;;;;22.04;37.74;101527.09;5007962;28;96832;-66
2022/05/14 08:08:02;;;;;;;;;;;;;;;22.27;37.49;101531.69;5004016;28;100641;-69
2022/05/14 08:10:28;;;;;;;;;;;;;;;22.71;36.48;101531.13;5007416;28;98967;-73
2022/05/14 08:12:55;;;;;;;;;;;;;;;23.21;35.66;101532.78;5004271;28;97809;-73
2022/05/14 08:15:24;;;;;;;;;;;;;;;22.91;35.85;101530.53;5001448;28;97443;-73
2022/05/14 08:17:50;;;;;;;;;;;;;;;23.06;36.00;101528.53;5008168;28;102672;-73
2022/05/14 08:20:17;;;;;;;;;;;;;;;22.43;36.38;101529.59;5004976;28;98748;-73
2022/05/14 08:25:28;;;;;;;;;;;;;;;21.25;39.05;101527.22;5003125;28;96928;-73
2022/05/14 08:27:54;;;;;;;;;;;;;;;22.11;37.58;101523.00;5008033;28;99438;-74
2022/05/14 08:30:22;;;;;;;;;;;;;;;21.96;37.55;101530.31;4997783;28;97877;-73
2022/05/14 08:32:50;;;;;;;;;;;;;;;22.18;37.20;101524.28;5003993;28;97573;-73
2022/05/14 08:35:18;;;;;;;;;;;;;;;22.25;36.56;101525.56;5005691;28;96995;-73
2022/05/14 08:37:44;;;;;;;;;;;;;;;22.40;36.50;101532.50;5006034;28;99212;-74
2022/05/14 08:40:17;;;;;;;;;;;;;;;22.72;35.91;101524.75;5003669;28;97987;-74
2022/05/14 08:42:43;;;;;;;;;;;;;;;23.23;35.04;101525.44;5006221;28;97202;-68
2022/05/14 08:45:11;;;;;;;;;;;;;;;23.35;34.91;101516.41;5009345;28;99116;-74
2022/05/14 08:47:43;;;;;;;;;;;;;;;22.32;36.16;101526.81;4999106;28;102371;-67
2022/05/14 08:50:11;;;;;;;;;;;;;;;22.44;35.24;101515.19;5005509;28;98914;-68
2022/05/14 08:52:39;;;;;;;;;;;;;;;22.76;34.95;101515.53;5002949;28;97103;-66
2022/05/14 08:55:07;;;;;;;;;;;;;;;22.57;35.53;101510.63;4998304;28;97646;-67
2022/05/14 08:57:40;;;;;;;;;;;;;;;22.67;34.87;101517.03;4998463;28;99478;-73
2022/05/14 09:00:07;;;;;;;;;;;;;;;22.62;35.44;101516.50;5001862;28;98728;-73
2022/05/14 09:02:36;;;;;;;;;;;;;;;22.43;35.80;101517.97;4997100;28;97172;-72
2022/05/14 09:05:05;;;;;;;;;;;;;;;22.36;35.89;101512.19;5005479;28;96959;-73
2022/05/14 09:07:33;;;;;;;;;;;;;;;23.03;35.27;101507.22;5001866;28;98917;-72
2022/05/14 09:10:00;;;;;;;;;;;;;;;22.28;36.50;101509.16;4999120;28;98842;-73
2022/05/14 09:12:27;;;;;;;;;;;;;;;22.68;36.17;101512.50;5000286;28;96880;-73
2022/05/14 09:14:55;;;;;;;;;;;;;;;22.92;35.60;101512.53;4999240;28;98550;-72
2022/05/14 09:17:23;;;;;;;;;;;;;;;23.74;34.16;101506.22;4999396;28;98946;-74
2022/05/14 09:19:50;;;;;;;;;;;;;;;22.93;34.55;101516.94;4996831;28;102482;-74
2022/05/14 09:22:19;;;;;;;;;;;;;;;23.14;33.66;101512.63;4997445;28;96984;-74
2022/05/14 09:24:50;;;;;;;;;;;;;;;23.76;32.57;101512.38;5001227;28;98783;-74
2022/05/14 09:27:21;;;;;;;;;;;;;;;22.60;34.54;101510.38;5008752;28;98862;-73
2022/05/14 09:29:49;;;;;;;;;;;;;;;22.61;34.72;101508.53;5005900;28;99268;-75
2022/05/14 09:32:26;;;;;;;;;;;;;;;22.47;34.34;101503.31;5005390;28;96811;-74
2022/05/14 09:35:03;;;;;;;;;;;;;;;24.02;31.81;101511.16;5006153;28;96992;-72
2022/05/14 09:37:29;;;;;;;;;;;;;;;24.18;30.44;101510.75;5000678;28;99399;-74
2022/05/14 09:39:58;;;;;;;;;;;;;;;23.70;30.78;101504.72;5000542;28;97631;-68
2022/05/14 09:42:26;;;;;;;;;;;;;;;23.58;31.38;101508.38;5003383;28;97030;-68
2022/05/14 09:44:53;;;;;;;;;;;;;;;23.57;30.96;101512.06;4997938;28;96948;-67
2022/05/14 09:47:34;;;;;;;;;;;;;;;23.26;31.50;101511.69;5002725;28;101571;-69
2022/05/14 09:50:02;;;;;;;;;;;;;;;23.74;30.96;101503.53;5002653;28;99327;-66
2022/05/14 09:52:29;;;;;;;;;;;;;;;22.15;33.02;101506.50;5004510;28;97069;-68
2022/05/14 09:54:57;;;;;;;;;;;;;;;22.69;32.77;101508.84;5001548;28;96998;-69
2022/05/14 09:57:30;;;;;;;;;;;;;;;23.52;31.15;101509.72;4999085;28;98248;-67
2022/05/14 10:00:08;;;;;;;;;;;;;;;23.71;30.82;101509.13;4997016;28;99039;-74
2022/05/14 10:02:42;;;;;;;;;;;;;;;24.12;30.62;101513.97;5004614;28;96858;-73
2022/05/14 10:05:12;;;;;;;;;;;;;;;24.05;29.15;101510.03;5003504;28;97445;-75
2022/05/14 10:07:41;;;;;;;;;;;;;;;23.89;28.92;101502.31;5006074;28;98925;-69
2022/05/14 10:10:12;;;;;;;;;;;;;;;23.96;28.65;101513.47;5005224;28;99396;-75
2022/05/14 10:12:41;;;;;;;;;;;;;;;24.09;28.79;101508.81;5005964;28;97168;-74
2022/05/14 10:15:11;;;;;;;;;;;;;;;23.90;29.21;101505.84;5000149;28;97063;-74
2022/05/14 10:17:43;;;;;;;;;;;;;;;22.77;30.77;101517.25;5007132;28;99419;-67
2022/05/14 10:20:15;;;;;;;;;;;;;;;22.80;30.07;101500.84;4999903;28;98383;-68
2022/05/14 10:28:25;;;;;;;;;;;;;;;23.56;29.12;101510.38;4996690;28;98117;-67
2022/05/14 10:30:55;;;;;;;;;;;;;;;23.73;28.82;101507.19;4997750;28;99236;-67
2022/05/14 10:33:23;;;;;;;;;;;;;;;23.54;28.22;101512.31;5000842;28;97619;-68
2022/05/14 10:35:54;;;;;;;;;;;;;;;23.41;28.14;101512.38;5003236;28;97792;-68
2022/05/14 10:38:24;;;;;;;;;;;;;;;23.80;28.15;101505.72;5002595;28;99220;-68
2022/05/14 10:40:54;;;;;;;;;;;;;;;24.15;27.78;101506.50;5006989;28;98700;-68
2022/05/14 10:43:27;;;;;;;;;;;;;;;23.80;28.98;101500.34;5000926;28;97690;-75
2022/05/14 10:45:56;;;;;;;;;;;;;;;22.84;30.65;101512.28;5006243;28;97181;-69
2022/05/14 10:48:31;;;;;;;;;;;;;;;23.86;29.05;101513.34;5011206;28;98981;-70
2022/05/14 10:50:57;;;;;;;;;;;;;;;23.28;30.04;101501.66;5008345;28;96806;-66
2022/05/14 10:53:24;;;;;;;;;;;;;;;23.99;29.17;101506.00;5005938;28;97588;-68
2022/05/14 10:55:55;;;;;;;;;;;;;;;24.04;29.12;101497.50;5002880;28;97662;-67
2022/05/14 10:58:35;;;;;;;;;;;;;;;23.20;30.25;101501.38;5001967;28;98710;-68
2022/05/14 11:01:02;;;;;;;;;;;;;;;23.30;30.46;101504.25;5007494;28;98830;-76
2022/05/14 11:03:31;;;;;;;;;;;;;;;23.21;30.46;101496.84;5003365;28;97047;-74
2022/05/14 11:06:07;;;;;;;;;;;;;;;22.94;30.86;101502.50;5004999;28;96812;-78
2022/05/14 11:08:35;;;;;;;;;;;;;;;23.16;31.10;101504.44;4999053;28;99275;-76
2022/05/14 11:11:16;;;;;;;;;;;;;;;23.12;30.74;101490.31;5006712;28;97765;-75
2022/05/14 11:13:55;;;;;;;;;;;;;;;23.19;30.73;101496.09;5004768;28;97082;-75
2022/05/14 11:16:21;;;;;;;;;;;;;;;23.80;29.55;101489.53;5006306;28;96769;-78
2022/05/14 11:18:48;;;;;;;;;;;;;;;24.04;29.76;101492.13;5005858;28;97764;-75
2022/05/14 11:21:18;;;;;;;;;;;;;;;24.62;28.84;101494.53;5005255;28;98970;-77
2022/05/14 11:23:48;;;;;;;;;;;;;;;24.48;29.06;101491.25;5006734;28;98089;-76
2022/05/14 11:26:15;;;;;;;;;;;;;;;23.76;30.29;101493.47;5004464;28;96905;-75
2022/05/14 11:28:44;;;;;;;;;;;;;;;23.80;30.63;101493.09;5006796;28;97632;-75
2022/05/14 11:31:18;;;;;;;;;;;;;;;23.61;30.52;101502.75;5006905;28;99635;-73
2022/05/14 11:33:46;;;;;;;;;;;;;;;23.84;30.26;101508.06;5005062;28;97101;-74
2022/05/14 11:36:21;;;;;;;;;;;;;;;23.96;30.33;101506.22;5004257;28;96997;-75
2022/05/14 11:38:52;;;;;;;;;;;;;;;24.10;29.77;101508.69;5006739;28;99031;-67
2022/05/14 11:41:27;;;;;;;;;;;;;;;23.94;30.08;101500.09;5009881;28;97481;-66
2022/05/14 11:43:54;;;;;;;;;;;;;;;24.71;28.88;101506.41;5010631;28;96796;-67
2022/05/14 11:46:28;;;;;;;;;;;;;;;24.78;29.02;101510.34;5000521;28;97366;-67
2022/05/14 11:48:57;;;;;;;;;;;;;;;24.54;29.06;101506.97;5005101;28;98177;-66
2022/05/14 11:51:28;;;;;;;;;;;;;;;25.14;28.51;101513.69;5001441;28;99073;-67
2022/05/14 11:54:02;;;;;;;;;;;;;;;25.23;27.98;101515.59;5002330;28;97108;-68
2022/05/14 11:56:34;;;;;;;;;;;;;;;23.74;29.71;101514.31;4995688;28;97400;-68
2022/05/14 11:59:03;;;;;;;;;;;;;;;25.14;27.94;101500.16;4996354;28;102391;-73
2022/05/14 12:01:33;;;;;;;;;;;;;;;25.66;27.08;101512.81;5002219;28;98868;-68
2022/05/14 12:06:50;;;;;;;;;;;;;;;25.18;27.96;101510.59;4989228;28;99067;-67
2022/05/14 12:09:22;;;;;;;;;;;;;;;24.96;28.21;101521.47;4995771;28;101039;-67
2022/05/14 12:11:55;;;;;;;;;;;;;;;23.85;29.59;101522.41;4997538;28;98508;-68
2022/05/14 12:14:28;;;;;;;;;;;;;;;24.87;28.58;101517.69;5000162;28;97513;-67
2022/05/14 12:16:58;;;;;;;;;;;;;;;24.52;28.87;101522.44;5001193;28;96966;-68
2022/05/14 12:19:25;;;;;;;;;;;;;;;24.16;28.96;101516.28;4995090;28;98159;-77
2022/05/14 12:21:54;;;;;;;;;;;;;;;23.70;30.16;101523.59;5003079;28;98466;-74
2022/05/14 12:24:21;;;;;;;;;;;;;;;23.93;29.57;101514.56;5005388;28;97029;-74
2022/05/14 12:26:48;;;;;;;;;;;;;;;24.58;28.61;101516.53;5007951;28;97029;-75
2022/05/14 12:29:15;;;;;;;;;;;;;;;24.06;29.44;101514.47;5000576;28;98982;-75
2022/05/14 12:34:36;;;;;;;;;;;;;;;23.98;29.69;101522.28;4998840;28;96714;-75
2022/05/14 12:37:04;;;;;;;;;;;;;;;24.84;28.62;101517.94;5002294;28;97601;-75
2022/05/14 12:39:32;;;;;;;;;;;;;;;25.05;27.94;101525.28;5005730;28;99638;-74
2022/05/14 12:41:59;;;;;;;;;;;;;;;24.68;28.71;101528.28;5004000;28;97736;-77
2022/05/14 12:44:28;;;;;;;;;;;;;;;24.95;28.13;101523.31;5010064;28;97391;-74
2022/05/14 12:46:56;;;;;;;;;;;;;;;24.29;28.84;101518.03;5001210;28;97356;-74
2022/05/14 12:49:23;;;;;;;;;;;;;;;24.89;28.26;101526.53;5009634;28;99136;-74
2022/05/14 12:51:53;;;;;;;;;;;;;;;25.41;27.49;101527.53;5000440;28;98996;-75
2022/05/14 12:54:22;;;;;;;;;;;;;;;25.24;27.74;101530.84;5011689;28;97386;-74
2022/05/14 12:56:50;;;;;;;;;;;;;;;25.26;27.88;101524.31;5004428;28;97568;-73
2022/05/14 12:59:16;;;;;;;;;;;;;;;25.42;27.71;101523.84;5011509;28;99545;-67
2022/05/14 13:01:46;;;;;;;;;;;;;;;25.27;28.04;101520.59;5002317;28;102673;-68